Time;durP1;ratioP1;P1;durP2;ratioP2;P2;SDS_P1;SDS_P2;PMS_P1;PMS_P2;Temp;Humidity;BMP_temperature;BMP_pressure;BME280_temperature;BME280_humidity;BME280_pressure;Samples;Min_cycle;Max_cycle;Signal;HPM_P1;HPM_P2
2023/09/11 00:00:06;;;;;;;7.77;7.10;;;;;;;21.59;75.01;100505.91;4998687;28;20673;-79
2023/09/11 00:02:32;;;;;;;8.13;7.40;;;;;;;21.61;75.61;100496.88;4998357;28;20771;-80
2023/09/11 00:04:59;;;;;;;8.17;7.37;;;;;;;21.55;76.59;100476.03;4998093;28;20214;-79
2023/09/11 00:07:25;;;;;;;8.83;8.03;;;;;;;21.50;76.51;100459.50;4998610;28;20211;-79
2023/09/11 00:09:53;;;;;;;7.80;7.30;;;;;;;21.50;75.98;100456.00;5004740;28;20735;-80
2023/09/11 00:12:20;;;;;;;7.93;7.23;;;;;;;21.41;76.55;100450.31;4977716;28;20212;-79
2023/09/11 00:14:46;;;;;;;8.60;7.90;;;;;;;21.40;76.33;100448.59;4980980;28;20212;-80
2023/09/11 00:17:13;;;;;;;8.33;7.70;;;;;;;21.44;75.97;100445.78;4990019;28;20680;-79
2023/09/11 00:19:39;;;;;;;7.40;6.87;;;;;;;21.30;76.57;100439.53;4981006;28;20219;-79
2023/09/11 00:22:06;;;;;;;8.43;7.77;;;;;;;21.32;76.63;100436.78;4997242;28;20544;-80
2023/09/11 00:24:32;;;;;;;7.70;7.20;;;;;;;21.30;77.22;100425.41;4997015;28;20673;-79
2023/09/11 00:27:00;;;;;;;8.43;7.40;;;;;;;21.26;77.17;100422.09;4979538;28;20212;-79
2023/09/11 00:29:26;;;;;;;8.00;7.50;;;;;;;21.26;77.11;100424.72;4977626;28;20210;-80
2023/09/11 00:31:53;;;;;;;8.20;7.40;;;;;;;21.22;77.13;100416.09;4977949;28;20231;-79
2023/09/11 00:34:19;;;;;;;8.17;7.43;;;;;;;21.16;77.60;100407.69;4976703;28;20239;-79
2023/09/11 00:36:46;;;;;;;8.87;7.97;;;;;;;21.07;78.08;100401.19;4977419;28;20212;-80
2023/09/11 00:39:12;;;;;;;7.73;7.23;;;;;;;21.13;77.88;100397.25;4993741;28;20230;-79
2023/09/11 00:41:40;;;;;;;7.97;7.30;;;;;;;21.07;78.32;100392.34;4985573;28;20208;-79
2023/09/11 00:44:08;;;;;;;8.80;7.97;;;;;;;21.01;78.64;100380.34;4996554;28;20727;-80
2023/09/11 00:46:35;;;;;;;8.27;7.60;;;;;;;20.98;78.44;100380.53;4999154;28;20232;-79
2023/09/11 00:49:01;;;;;;;8.23;7.63;;;;;;;20.92;78.66;100373.78;4986475;28;20212;-79
2023/09/11 00:51:28;;;;;;;7.90;7.27;;;;;;;20.90;78.71;100375.69;4984270;28;20208;-79
2023/09/11 00:53:55;;;;;;;8.30;7.77;;;;;;;20.91;78.67;100376.53;4997120;28;20235;-79
2023/09/11 00:56:22;;;;;;;8.37;7.57;;;;;;;20.86;79.42;100365.38;4997614;28;20218;-79
2023/09/11 00:58:49;;;;;;;7.73;7.23;;;;;;;20.89;79.83;100351.91;4996238;28;20226;-79
2023/09/11 01:01:19;;;;;;;7.53;6.90;;;;;;;20.93;79.90;100341.03;4996209;28;20210;-79
2023/09/11 01:03:47;;;;;;;8.03;7.33;;;;;;;20.92;80.14;100341.09;4996257;28;20710;-79
2023/09/11 01:06:14;;;;;;;8.17;7.57;;;;;;;20.93;79.44;100351.63;4997644;28;20254;-78
2023/09/11 01:08:40;;;;;;;8.00;7.40;;;;;;;20.96;79.64;100353.22;4994718;28;20580;-79
2023/09/11 01:11:07;;;;;;;7.97;7.47;;;;;;;20.98;79.08;100356.63;5000207;28;20222;-79
2023/09/11 01:13:33;;;;;;;8.47;7.80;;;;;;;20.97;79.27;100354.91;5001615;28;20235;-79
2023/09/11 01:16:06;;;;;;;8.50;7.77;;;;;;;20.97;78.55;100357.56;5001179;28;20215;-79
2023/09/11 01:18:44;;;;;;;8.37;7.67;;;;;;;20.92;78.39;100365.84;4993654;28;20209;-80
2023/09/11 01:21:47;;;;;;;8.83;8.03;;;;;;;20.85;78.30;100367.16;4984052;28;20269;-79
2023/09/11 01:24:39;;;;;;;9.50;8.77;;;;;;;20.87;78.14;100375.03;4969422;28;20227;-79
2023/09/11 01:27:43;;;;;;;8.47;7.80;;;;;;;20.72;78.49;100367.09;4999878;28;20211;-80
2023/09/11 01:30:13;;;;;;;8.43;7.83;;;;;;;20.72;77.99;100382.16;4985025;28;20202;-79
2023/09/11 01:32:41;;;;;;;9.10;8.37;;;;;;;20.68;78.43;100388.63;4989677;28;20234;-79
2023/09/11 01:35:08;;;;;;;9.73;8.67;;;;;;;20.72;78.79;100376.84;4981065;28;20207;-79
2023/09/11 01:37:34;;;;;;;9.03;8.20;;;;;;;20.70;78.92;100369.00;4980223;28;20219;-79
2023/09/11 01:40:01;;;;;;;10.40;8.23;;;;;;;20.67;78.58;100368.31;4981288;28;20223;-80
2023/09/11 01:42:44;;;;;;;9.13;8.53;;;;;;;20.59;79.18;100363.50;4994015;28;20925;-79
2023/09/11 01:45:15;;;;;;;8.53;7.83;;;;;;;20.62;78.73;100366.81;5000426;28;20238;-79
2023/09/11 01:47:42;;;;;;;9.07;8.37;;;;;;;20.64;78.58;100369.38;5000903;28;20221;-79
2023/09/11 01:50:11;;;;;;;11.70;8.53;;;;;;;20.56;78.80;100367.16;4979966;28;20219;-80
2023/09/11 01:52:38;;;;;;;8.70;8.10;;;;;;;20.46;79.84;100355.44;4995432;28;20227;-80
2023/09/11 01:55:06;;;;;;;9.57;8.60;;;;;;;20.44;80.00;100333.44;5000093;28;20210;-80
2023/09/11 01:57:33;;;;;;;9.37;8.53;;;;;;;20.43;79.99;100326.44;5000111;28;20230;-80
2023/09/11 02:00:00;;;;;;;8.57;7.87;;;;;;;20.42;80.16;100325.59;5000315;28;20576;-80
2023/09/11 02:02:29;;;;;;;9.00;8.40;;;;;;;20.35;80.42;100321.59;5000465;28;20211;-80
2023/09/11 02:04:56;;;;;;;8.60;8.10;;;;;;;20.30;80.64;100329.00;4999107;28;20744;-80
2023/09/11 02:07:22;;;;;;;8.67;7.77;;;;;;;20.32;79.82;100339.53;4981449;28;20204;-80
2023/09/11 02:09:49;;;;;;;8.57;7.77;;;;;;;20.34;80.49;100317.25;4995841;28;20211;-80
2023/09/11 02:12:15;;;;;;;8.63;8.00;;;;;;;20.33;80.36;100330.59;4999121;28;20199;-80
2023/09/11 02:14:42;;;;;;;8.73;8.13;;;;;;;20.31;80.58;100321.91;5000157;28;20235;-80
2023/09/11 02:17:08;;;;;;;9.03;8.50;;;;;;;20.30;80.81;100313.09;4999674;28;20214;-80
2023/09/11 02:19:36;;;;;;;8.83;8.30;;;;;;;20.29;80.32;100318.47;4984794;28;20204;-79
2023/09/11 02:22:03;;;;;;;11.57;8.00;;;;;;;20.24;79.95;100324.91;4991985;28;20211;-80
2023/09/11 02:24:29;;;;;;;9.03;8.23;;;;;;;20.18;80.13;100322.66;5005572;28;20230;-79
2023/09/11 02:26:56;;;;;;;8.13;7.63;;;;;;;20.15;80.11;100324.63;4998289;28;20218;-80
2023/09/11 02:29:23;;;;;;;8.87;8.27;;;;;;;20.19;80.15;100328.78;4998077;28;20204;-80
2023/09/11 02:31:49;;;;;;;8.40;7.80;;;;;;;20.10;80.75;100321.38;5006311;28;20207;-79
2023/09/11 02:34:16;;;;;;;8.13;7.50;;;;;;;20.07;81.00;100318.94;4990074;28;20693;-79
2023/09/11 02:36:44;;;;;;;8.00;7.33;;;;;;;20.06;81.08;100304.84;4997835;28;20211;-80
2023/09/11 02:39:10;;;;;;;8.53;7.93;;;;;;;20.00;81.20;100292.81;4997342;28;20692;-79
2023/09/11 02:41:37;;;;;;;9.17;8.47;;;;;;;20.07;81.00;100301.25;4998156;28;20208;-79
2023/09/11 02:44:03;;;;;;;8.90;8.10;;;;;;;20.00;81.07;100294.63;4997182;28;20236;-80
2023/09/11 02:46:30;;;;;;;7.90;7.30;;;;;;;19.95;81.32;100286.09;4998194;28;20215;-80
2023/09/11 02:48:56;;;;;;;9.10;8.40;;;;;;;19.88;81.88;100284.75;4989354;28;20266;-80
2023/09/11 02:51:23;;;;;;;9.67;8.90;;;;;;;19.84;82.25;100271.69;4982226;28;20638;-79
2023/09/11 02:53:51;;;;;;;9.57;8.77;;;;;;;19.79;82.00;100276.41;4997202;28;20262;-80
2023/09/11 02:56:17;;;;;;;8.73;8.03;;;;;;;19.77;82.15;100262.41;4997805;28;20203;-79
2023/09/11 02:58:44;;;;;;;8.50;7.90;;;;;;;19.71;82.19;100272.50;4997876;28;20208;-79
2023/09/11 03:01:10;;;;;;;9.33;8.70;;;;;;;19.75;82.08;100271.41;4998268;28;20215;-79
2023/09/11 03:03:37;;;;;;;8.93;8.33;;;;;;;19.75;81.88;100277.53;4997630;28;20303;-79
2023/09/11 03:06:04;;;;;;;8.67;8.07;;;;;;;19.76;82.24;100263.38;4997906;28;20203;-79
2023/09/11 03:08:31;;;;;;;8.07;7.47;;;;;;;19.70;83.65;100242.53;4998294;28;20215;-80
2023/09/11 03:11:06;;;;;;;9.13;8.33;;;;;;;19.73;83.34;100239.69;4998607;28;20215;-80
2023/09/11 03:13:33;;;;;;;8.83;8.30;;;;;;;19.76;82.57;100244.84;4996882;28;20242;-79
2023/09/11 03:16:08;;;;;;;8.63;8.13;;;;;;;19.75;82.26;100256.34;4997978;28;20208;-80
2023/09/11 03:18:34;;;;;;;8.50;7.80;;;;;;;19.75;81.57;100272.25;4991591;28;20282;-79
2023/09/11 03:21:02;;;;;;;9.33;8.63;;;;;;;19.68;81.49;100275.31;4978258;28;20212;-79
2023/09/11 03:23:29;;;;;;;8.90;8.30;;;;;;;19.65;80.92;100300.19;4997178;28;20233;-80
2023/09/11 03:25:55;;;;;;;9.03;8.33;;;;;;;19.60;81.54;100295.19;5007061;28;20207;-80
2023/09/11 03:28:26;;;;;;;9.53;8.80;;;;;;;19.57;81.84;100284.75;4996282;28;20203;-79
2023/09/11 03:30:53;;;;;;;8.43;7.83;;;;;;;19.58;82.22;100277.66;4996915;28;20218;-79
2023/09/11 03:33:19;;;;;;;9.60;8.70;;;;;;;19.60;82.42;100268.69;5002071;28;20231;-79
2023/09/11 03:35:47;;;;;;;10.33;9.33;;;;;;;19.61;81.87;100272.19;4979563;28;20212;-79
2023/09/11 03:38:13;;;;;;;9.97;9.13;;;;;;;19.63;82.08;100271.16;4989164;28;20261;-79
2023/09/11 03:40:41;;;;;;;9.67;8.97;;;;;;;19.55;81.68;100275.19;4997827;28;20233;-78
2023/09/11 03:43:07;;;;;;;9.47;8.90;;;;;;;19.53;81.90;100272.63;4997513;28;20266;-79
2023/09/11 03:45:35;;;;;;;9.03;8.33;;;;;;;19.53;81.52;100279.75;4998395;28;20215;-79
2023/09/11 03:48:02;;;;;;;9.73;8.87;;;;;;;19.47;81.36;100278.28;4997955;28;20207;-79
2023/09/11 03:50:28;;;;;;;10.80;9.83;;;;;;;19.45;81.65;100283.69;4982697;28;20674;-79
2023/09/11 03:52:55;;;;;;;9.43;8.53;;;;;;;19.44;82.19;100266.09;4996287;28;20234;-79
2023/09/11 03:55:21;;;;;;;10.10;9.40;;;;;;;19.43;81.85;100263.53;4998524;28;20250;-79
2023/09/11 03:57:48;;;;;;;8.83;8.13;;;;;;;19.44;82.26;100250.22;5005359;28;20203;-78
2023/09/11 04:00:15;;;;;;;9.83;9.13;;;;;;;19.35;82.49;100241.97;4983835;28;20219;-79
2023/09/11 04:02:43;;;;;;;9.27;8.67;;;;;;;19.33;82.58;100235.91;4978731;28;20236;-79
2023/09/11 04:05:09;;;;;;;9.37;8.57;;;;;;;19.29;82.68;100240.53;4978455;28;20204;-78
2023/09/11 04:07:36;;;;;;;11.00;9.40;;;;;;;19.22;83.86;100221.47;4980633;28;20219;-79
2023/09/11 04:10:02;;;;;;;9.53;8.77;;;;;;;19.22;83.71;100218.00;4988727;28;20211;-79
2023/09/11 04:12:30;;;;;;;9.80;9.00;;;;;;;19.20;84.51;100194.25;4991118;28;20228;-78
2023/09/11 04:14:56;;;;;;;10.00;9.30;;;;;;;19.17;84.19;100193.63;4992809;28;20231;-79
2023/09/11 04:17:23;;;;;;;9.67;9.07;;;;;;;19.23;83.30;100207.31;5012579;28;20654;-78
2023/09/11 04:19:51;;;;;;;13.97;9.10;;;;;;;19.24;82.50;100229.34;4997868;28;20209;-79
2023/09/11 04:22:17;;;;;;;9.77;8.97;;;;;;;19.25;83.02;100225.78;4998596;28;20588;-79
2023/09/11 04:24:44;;;;;;;9.80;9.10;;;;;;;19.22;82.64;100240.00;4995953;28;20218;-78
2023/09/11 04:27:11;;;;;;;9.70;8.80;;;;;;;19.21;82.43;100246.25;4995944;28;20215;-79
2023/09/11 04:29:37;;;;;;;10.10;9.17;;;;;;;19.20;82.66;100238.41;4995674;28;20596;-79
2023/09/11 04:32:04;;;;;;;9.47;8.67;;;;;;;19.11;82.84;100242.44;4996741;28;20211;-79
2023/09/11 04:34:31;;;;;;;9.80;9.10;;;;;;;19.12;82.72;100251.22;4996013;28;20232;-79
2023/09/11 04:36:59;;;;;;;10.43;9.53;;;;;;;19.11;82.90;100239.81;4996567;28;20203;-79
2023/09/11 04:39:25;;;;;;;9.50;8.90;;;;;;;19.15;82.96;100237.84;5001915;28;20210;-79
2023/09/11 04:41:52;;;;;;;10.67;9.63;;;;;;;19.11;83.48;100229.22;4976531;28;20211;-79
2023/09/11 04:44:18;;;;;;;10.10;9.20;;;;;;;19.04;83.65;100222.56;4994284;28;20231;-79
2023/09/11 04:46:45;;;;;;;10.23;9.63;;;;;;;19.08;83.08;100226.72;4995803;28;20618;-79
2023/09/11 04:49:12;;;;;;;10.23;9.30;;;;;;;19.06;83.52;100225.97;4978798;28;20216;-79
2023/09/11 04:51:38;;;;;;;10.30;9.50;;;;;;;19.05;83.76;100219.00;4995965;28;20669;-79
2023/09/11 04:54:06;;;;;;;9.63;8.97;;;;;;;19.04;83.28;100218.13;4994927;28;20234;-79
2023/09/11 04:56:33;;;;;;;10.13;9.43;;;;;;;18.99;83.70;100214.06;4996883;28;20211;-78
2023/09/11 04:58:59;;;;;;;13.27;9.93;;;;;;;18.99;83.89;100206.97;4995806;28;20225;-78
2023/09/11 05:01:26;;;;;;;10.80;9.77;;;;;;;18.95;84.51;100208.09;4996099;28;20661;-79
2023/09/11 05:03:52;;;;;;;9.70;9.00;;;;;;;18.95;84.16;100202.78;4995153;28;20231;-78
2023/09/11 05:06:19;;;;;;;11.43;10.43;;;;;;;18.97;84.42;100203.56;4995649;28;20669;-79
2023/09/11 05:08:45;;;;;;;10.23;9.47;;;;;;;18.95;84.56;100202.78;4996492;28;20208;-78
2023/09/11 05:11:13;;;;;;;11.93;9.17;;;;;;;19.00;84.38;100205.16;4995422;28;20230;-79
2023/09/11 05:13:39;;;;;;;10.43;9.50;;;;;;;19.02;84.73;100198.00;4995737;28;20231;-79
2023/09/11 05:16:06;;;;;;;10.40;9.40;;;;;;;19.01;85.34;100193.66;4995655;28;20231;-79
2023/09/11 05:18:32;;;;;;;10.67;9.87;;;;;;;19.01;85.33;100196.31;4983298;28;20309;-79
2023/09/11 05:20:59;;;;;;;10.53;9.73;;;;;;;19.03;85.79;100178.53;4983218;28;20706;-78
2023/09/11 05:23:25;;;;;;;10.13;9.47;;;;;;;19.08;86.05;100175.63;4994603;28;20226;-79
2023/09/11 05:25:52;;;;;;;11.80;10.60;;;;;;;19.10;86.22;100171.09;4995292;28;20207;-80
2023/09/11 05:28:20;;;;;;;10.77;10.03;;;;;;;19.10;86.12;100163.16;4993551;28;20212;-80
2023/09/11 05:30:46;;;;;;;11.43;10.63;;;;;;;19.07;86.23;100169.50;4999038;28;20211;-79
2023/09/11 05:33:13;;;;;;;11.60;10.67;;;;;;;19.05;86.71;100164.28;4989599;28;20223;-78
2023/09/11 05:35:39;;;;;;;12.83;11.83;;;;;;;19.05;86.81;100160.78;4992217;28;20227;-78
2023/09/11 05:38:06;;;;;;;12.30;11.30;;;;;;;19.03;86.50;100167.97;4992214;28;20225;-78
2023/09/11 05:40:32;;;;;;;11.87;11.00;;;;;;;19.11;86.27;100165.72;4984119;28;20211;-78
2023/09/11 05:42:59;;;;;;;11.77;10.87;;;;;;;19.16;86.08;100174.22;4992643;28;20231;-78
2023/09/11 05:45:26;;;;;;;10.87;10.07;;;;;;;19.19;86.53;100173.22;4992749;28;20203;-78
2023/09/11 05:47:53;;;;;;;11.63;10.70;;;;;;;19.17;86.48;100172.44;4986403;28;20200;-78
2023/09/11 05:50:19;;;;;;;11.00;10.30;;;;;;;19.17;86.80;100159.22;4974358;28;20211;-78
2023/09/11 05:52:46;;;;;;;11.40;10.53;;;;;;;19.29;86.96;100160.28;4992840;28;20314;-78
2023/09/11 05:55:13;;;;;;;11.63;10.73;;;;;;;19.39;87.68;100153.50;4995574;28;20622;-78
2023/09/11 05:57:39;;;;;;;12.87;11.80;;;;;;;19.48;87.79;100152.91;4996490;28;20204;-78
2023/09/11 06:00:12;;;;;;;13.70;12.57;;;;;;;19.48;87.18;100155.56;4996678;28;20207;-78
2023/09/11 06:02:40;;;;;;;14.37;13.03;;;;;;;19.48;86.60;100170.59;4996752;28;20780;-78
2023/09/11 06:05:08;;;;;;;15.33;13.43;;;;;;;19.41;86.68;100178.91;4996264;28;20199;-78
2023/09/11 06:07:34;;;;;;;14.57;13.53;;;;;;;19.52;86.72;100174.75;4988258;28;20212;-78
2023/09/11 06:10:01;;;;;;;13.60;12.50;;;;;;;19.57;86.41;100176.19;4996094;28;20210;-78
2023/09/11 06:12:29;;;;;;;12.73;11.83;;;;;;;19.65;86.49;100186.31;5001835;28;20231;-78
2023/09/11 06:14:56;;;;;;;12.57;11.50;;;;;;;19.68;87.04;100172.03;4998970;28;20234;-78
2023/09/11 06:17:22;;;;;;;14.07;12.97;;;;;;;19.68;86.63;100183.47;4994567;28;20211;-78
2023/09/11 06:19:50;;;;;;;13.43;12.47;;;;;;;19.54;86.16;100191.41;4985606;28;20204;-78
2023/09/11 06:22:17;;;;;;;13.90;12.70;;;;;;;19.61;87.06;100179.50;4993313;28;20211;-78
2023/09/11 06:24:43;;;;;;;12.93;11.93;;;;;;;19.70;87.06;100176.31;4996665;28;20200;-80
2023/09/11 06:27:10;;;;;;;13.07;11.73;;;;;;;19.80;87.79;100169.53;4992817;28;20665;-81
2023/09/11 06:29:36;;;;;;;12.93;11.67;;;;;;;19.75;87.29;100174.25;4993171;28;20203;-80
2023/09/11 06:32:03;;;;;;;12.43;11.43;;;;;;;19.80;87.64;100171.31;5001265;28;20212;-80
2023/09/11 06:34:30;;;;;;;12.20;11.00;;;;;;;19.82;87.79;100159.69;4980248;28;20263;-79
2023/09/11 06:36:58;;;;;;;12.07;11.07;;;;;;;19.86;87.86;100151.53;4997596;28;20212;-79
2023/09/11 06:39:25;;;;;;;12.63;11.53;;;;;;;19.92;88.33;100148.50;4980926;28;20212;-80
2023/09/11 06:41:51;;;;;;;10.97;9.93;;;;;;;19.95;88.71;100135.91;4979948;28;20322;-80
2023/09/11 06:44:18;;;;;;;11.10;10.10;;;;;;;19.98;88.48;100141.03;4979954;28;20236;-80
2023/09/11 06:46:44;;;;;;;11.70;10.87;;;;;;;20.06;88.56;100131.75;4980097;28;20392;-80
2023/09/11 06:49:11;;;;;;;11.07;10.13;;;;;;;20.06;88.61;100135.25;4981320;28;20201;-80
2023/09/11 06:51:39;;;;;;;12.97;11.97;;;;;;;20.12;89.67;100126.91;5006465;28;20210;-79
2023/09/11 06:54:09;;;;;;;12.67;11.67;;;;;;;20.13;89.77;100117.16;4992959;28;20247;-80
2023/09/11 06:56:36;;;;;;;12.73;11.73;;;;;;;20.06;90.25;100113.19;4981975;28;20235;-80
2023/09/11 06:59:02;;;;;;;12.97;11.90;;;;;;;20.10;90.74;100104.09;4981653;28;20204;-80
2023/09/11 07:01:30;;;;;;;13.07;11.97;;;;;;;20.01;91.42;100094.94;4992555;28;20224;-80
2023/09/11 07:03:56;;;;;;;15.07;13.53;;;;;;;20.02;92.02;100080.75;4999025;28;20705;-80
2023/09/11 07:06:23;;;;;;;16.73;15.23;;;;;;;20.03;93.28;100063.91;4998027;28;20588;-79
2023/09/11 07:08:49;;;;;;;17.00;15.70;;;;;;;20.06;93.59;100060.19;4998292;28;20207;-80
2023/09/11 07:11:18;;;;;;;16.50;15.17;;;;;;;20.08;94.47;100040.63;4999201;28;20207;-80
2023/09/11 07:13:44;;;;;;;16.63;14.97;;;;;;;20.07;96.17;100017.72;5000571;28;20219;-81
2023/09/11 07:16:11;;;;;;;16.83;15.53;;;;;;;20.14;96.35;100010.22;4997494;28;20689;-77
2023/09/11 07:18:37;;;;;;;16.63;15.40;;;;;;;20.19;95.53;100024.00;4982813;28;20208;-77
2023/09/11 07:21:04;;;;;;;16.70;15.40;;;;;;;20.25;94.32;100044.81;4982404;28;20214;-77
2023/09/11 07:23:31;;;;;;;16.73;15.33;;;;;;;20.31;93.62;100056.81;4994399;28;20231;-77
2023/09/11 07:25:58;;;;;;;16.87;15.67;;;;;;;20.23;94.56;100060.78;4994987;28;20649;-77
2023/09/11 07:28:27;;;;;;;16.83;15.23;;;;;;;20.21;95.87;100038.84;4993741;28;20637;-77
2023/09/11 07:30:54;;;;;;;17.70;16.27;;;;;;;20.28;96.94;100026.06;4975617;28;20218;-77
2023/09/11 07:33:20;;;;;;;17.20;15.83;;;;;;;20.32;96.98;100022.25;4983877;28;20227;-78
2023/09/11 07:35:47;;;;;;;17.07;15.67;;;;;;;20.36;97.71;100009.66;4996012;28;20220;-77
2023/09/11 07:38:13;;;;;;;17.07;15.57;;;;;;;20.38;98.64;100011.25;4995948;28;20215;-78
2023/09/11 07:40:40;;;;;;;17.43;15.87;;;;;;;20.50;98.25;100014.03;4996636;28;20215;-78
2023/09/11 07:43:07;;;;;;;16.90;15.17;;;;;;;20.59;97.30;100027.56;5002916;28;20241;-78
2023/09/11 07:45:34;;;;;;;17.17;15.63;;;;;;;20.78;96.54;100028.94;4989812;28;20207;-77
2023/09/11 07:48:01;;;;;;;15.60;14.47;;;;;;;20.85;96.61;100035.50;4990734;28;20305;-78
2023/09/11 07:50:28;;;;;;;14.97;13.83;;;;;;;20.90;96.26;100044.03;4993968;28;20202;-78
2023/09/11 07:52:55;;;;;;;14.80;13.47;;;;;;;21.00;95.76;100058.34;4977596;28;20255;-78
2023/09/11 07:55:21;;;;;;;14.60;13.30;;;;;;;21.13;95.59;100062.81;4994528;28;20273;-78
2023/09/11 07:57:48;;;;;;;14.47;13.40;;;;;;;21.20;95.12;100070.25;5001143;28;20280;-78
2023/09/11 08:00:15;;;;;;;13.97;12.80;;;;;;;21.33;93.40;100094.16;4978090;28;20227;-78
2023/09/11 08:02:43;;;;;;;13.23;12.03;;;;;;;21.50;92.85;100103.63;4996543;28;20255;-79
2023/09/11 08:05:12;;;;;;;13.83;12.83;;;;;;;21.71;91.46;100129.66;5004072;28;20668;-79
2023/09/11 08:07:39;;;;;;;13.20;11.80;;;;;;;21.83;91.04;100141.22;4979537;28;20216;-78
2023/09/11 08:10:06;;;;;;;14.40;12.17;;;;;;;21.86;91.08;100146.31;4977762;28;20709;-78
2023/09/11 08:12:34;;;;;;;12.63;11.53;;;;;;;21.94;90.75;100154.56;4975945;28;20228;-78
2023/09/11 08:15:01;;;;;;;12.90;11.80;;;;;;;22.05;91.25;100151.16;4976555;28;20235;-78
2023/09/11 08:17:29;;;;;;;11.97;11.07;;;;;;;22.16;90.76;100161.88;4992852;28;20657;-77
2023/09/11 08:19:57;;;;;;;20.70;12.10;;;;;;;22.35;89.58;100180.03;4976348;28;20295;-77
2023/09/11 08:22:23;;;;;;;13.70;11.53;;;;;;;22.46;88.99;100195.22;4993670;28;20200;-77
2023/09/11 08:24:50;;;;;;;12.03;10.80;;;;;;;22.74;86.90;100229.50;4976821;28;20204;-77
2023/09/11 08:27:17;;;;;;;16.47;9.97;;;;;;;22.94;85.13;100259.97;4976910;28;20770;-77
2023/09/11 08:29:43;;;;;;;11.33;10.43;;;;;;;23.04;83.47;100312.59;4995249;28;20822;-78
2023/09/11 08:32:10;;;;;;;11.00;9.90;;;;;;;23.14;83.22;100321.59;4995994;28;20204;-78
2023/09/11 08:34:36;;;;;;;11.47;10.40;;;;;;;23.17;82.73;100327.53;5001369;28;20450;-77
2023/09/11 08:37:06;;;;;;;11.07;9.97;;;;;;;23.26;82.05;100339.31;5007687;28;20223;-77
2023/09/11 08:39:32;;;;;;;14.27;9.60;;;;;;;23.40;80.70;100371.13;5000091;28;20219;-77
2023/09/11 08:42:11;;;;;;;12.07;9.00;;;;;;;23.52;79.06;100398.66;4998408;28;20207;-78
2023/09/11 08:44:40;;;;;;;14.30;8.53;;;;;;;23.73;74.84;100494.84;4998528;28;20233;-78
2023/09/11 08:47:07;;;;;;;10.53;8.30;;;;;;;23.81;73.46;100517.47;4997472;28;20206;-78
2023/09/11 08:49:36;;;;;;;8.70;7.13;;;;;;;23.78;74.70;100476.75;4978215;28;20210;-77
2023/09/11 08:52:06;;;;;;;11.73;8.33;;;;;;;23.90;74.04;100525.63;4991508;28;20298;-77
2023/09/11 08:54:35;;;;;;;13.70;8.27;;;;;;;24.02;73.11;100557.69;4997926;28;20654;-77
2023/09/11 08:57:07;;;;;;;14.80;7.60;;;;;;;24.03;71.06;100570.91;4998344;28;20232;-78
2023/09/11 08:59:37;;;;;;;16.23;8.30;;;;;;;24.17;72.14;100577.91;4999074;28;20211;-78
2023/09/11 09:02:05;;;;;;;18.77;7.63;;;;;;;24.28;71.80;100593.09;4998303;28;20195;-77
2023/09/11 09:04:34;;;;;;;15.10;7.67;;;;;;;24.38;68.20;100620.81;4998637;28;20227;-78
2023/09/11 09:07:01;;;;;;;14.83;7.70;;;;;;;24.63;67.91;100665.25;4998783;28;20252;-78
2023/09/11 09:09:29;;;;;;;12.10;6.77;;;;;;;24.67;68.19;100677.38;5006432;28;20229;-78
2023/09/11 09:11:56;;;;;;;16.87;6.90;;;;;;;24.80;68.91;100664.00;4990415;28;20668;-77
2023/09/11 09:14:24;;;;;;;10.60;7.07;;;;;;;24.82;67.16;100688.75;4998486;28;20231;-78
2023/09/11 09:16:51;;;;;;;9.50;7.37;;;;;;;24.96;67.64;100691.22;4998844;28;20689;-78
2023/09/11 09:19:18;;;;;;;14.03;7.73;;;;;;;24.91;67.94;100655.16;4989755;28;20207;-78
2023/09/11 09:22:08;;;;;;;14.17;7.40;;;;;;;24.98;66.53;100697.31;4998755;28;20573;-78
2023/09/11 09:24:37;;;;;;;9.83;6.40;;;;;;;25.10;66.50;100700.03;5007054;28;20204;-78
2023/09/11 09:27:06;;;;;;;13.70;7.27;;;;;;;25.17;65.46;100710.13;5001596;28;20273;-78
2023/09/11 09:29:37;;;;;;;13.10;7.70;;;;;;;25.34;66.17;100716.88;4982081;28;20214;-77
2023/09/11 09:32:05;;;;;;;14.50;7.00;;;;;;;25.42;69.80;100692.25;4984364;28;20297;-77
2023/09/11 09:34:33;;;;;;;16.30;7.23;;;;;;;25.41;66.19;100697.69;4983245;28;20283;-77
2023/09/11 09:37:01;;;;;;;11.27;7.27;;;;;;;25.38;64.64;100716.66;4996686;28;20227;-77
2023/09/11 09:39:29;;;;;;;11.97;7.53;;;;;;;25.39;65.18;100719.22;5002271;28;20210;-78
2023/09/11 09:42:00;;;;;;;13.47;7.37;;;;;;;25.47;66.52;100703.44;4995331;28;20572;-77
2023/09/11 09:44:30;;;;;;;10.73;7.27;;;;;;;25.55;65.68;100711.72;5002865;28;20257;-78
2023/09/11 09:46:56;;;;;;;17.33;6.87;;;;;;;25.64;63.07;100757.41;5002806;28;20197;-78
2023/09/11 09:49:24;;;;;;;15.03;7.80;;;;;;;25.75;62.64;100770.81;4984696;28;20202;-78
2023/09/11 09:51:52;;;;;;;11.00;6.67;;;;;;;25.88;64.48;100768.88;5001167;28;20231;-78
2023/09/11 09:54:18;;;;;;;13.33;6.93;;;;;;;26.00;63.29;100761.72;5001461;28;20724;-78
2023/09/11 09:56:47;;;;;;;15.47;6.63;;;;;;;26.10;61.92;100780.59;5001278;28;20227;-78
2023/09/11 09:59:23;;;;;;;14.47;6.97;;;;;;;26.07;62.42;100786.19;5001794;28;20779;-78
2023/09/11 10:01:50;;;;;;;10.67;6.83;;;;;;;26.13;62.05;100807.97;5002296;28;20673;-78
2023/09/11 10:04:17;;;;;;;10.67;6.90;;;;;;;26.17;61.43;100795.19;5000642;28;20225;-78
2023/09/11 10:06:53;;;;;;;9.97;6.83;;;;;;;26.24;60.35;100825.00;5001487;28;20216;-78
2023/09/11 10:09:21;;;;;;;16.20;7.53;;;;;;;26.39;60.70;100810.41;4999635;28;20207;-81
2023/09/11 10:11:51;;;;;;;13.30;7.13;;;;;;;26.35;59.99;100828.53;5003452;28;20215;-80
2023/09/11 10:14:20;;;;;;;13.83;6.77;;;;;;;26.45;59.79;100825.97;5003686;28;20228;-79
2023/09/11 10:16:46;;;;;;;13.87;6.77;;;;;;;26.68;60.26;100820.63;5003015;28;20223;-80
2023/09/11 10:19:13;;;;;;;11.70;6.80;;;;;;;26.74;59.18;100838.91;4987328;28;20209;-78
2023/09/11 10:21:40;;;;;;;9.47;7.20;;;;;;;26.79;58.86;100836.69;4996691;28;20212;-79
2023/09/11 10:24:09;;;;;;;9.70;6.27;;;;;;;26.84;58.68;100836.28;4999963;28;20231;-80
2023/09/11 10:26:41;;;;;;;13.27;6.67;;;;;;;26.88;59.21;100846.66;4999194;28;20204;-79
2023/09/11 10:29:11;;;;;;;9.93;6.50;;;;;;;26.90;59.52;100831.31;5000390;28;20203;-79
2023/09/11 10:31:43;;;;;;;14.03;7.43;;;;;;;26.97;59.20;100833.47;4998052;28;20211;-79
2023/09/11 10:34:12;;;;;;;10.73;6.87;;;;;;;27.03;59.78;100811.53;4998444;28;20226;-79
2023/09/11 10:36:41;;;;;;;14.23;7.13;;;;;;;26.96;59.83;100805.84;4999820;28;20237;-79
2023/09/11 10:39:10;;;;;;;10.30;7.67;;;;;;;26.86;59.53;100804.91;4998693;28;20231;-79
2023/09/11 10:41:38;;;;;;;13.27;7.50;;;;;;;27.07;60.58;100768.28;4999669;28;20207;-80
2023/09/11 10:44:05;;;;;;;8.57;6.83;;;;;;;27.13;60.17;100758.88;4999293;28;20231;-80
2023/09/11 10:46:38;;;;;;;10.20;7.30;;;;;;;27.11;59.90;100761.69;4999851;28;20207;-79
2023/09/11 10:49:17;;;;;;;10.17;7.87;;;;;;;27.16;59.17;100772.03;4986241;28;20215;-80
2023/09/11 10:51:45;;;;;;;9.17;6.90;;;;;;;27.32;59.90;100760.91;4989273;28;20216;-79
2023/09/11 10:54:13;;;;;;;15.37;7.13;;;;;;;27.29;58.95;100764.69;5003008;28;20230;-80
2023/09/11 10:56:39;;;;;;;9.23;7.20;;;;;;;27.29;57.73;100790.63;5001224;28;20231;-80
2023/09/11 10:59:07;;;;;;;9.63;6.70;;;;;;;27.49;57.80;100810.41;4999732;28;20200;-80
2023/09/11 11:01:33;;;;;;;12.33;7.90;;;;;;;27.49;58.19;100800.53;4998521;28;20291;-80
2023/09/11 11:04:02;;;;;;;7.93;6.87;;;;;;;27.40;56.61;100835.31;4997425;28;20226;-80
2023/09/11 11:06:31;;;;;;;10.80;7.17;;;;;;;27.56;56.11;100854.50;4998754;28;20218;-79
2023/09/11 11:08:58;;;;;;;12.37;7.57;;;;;;;27.77;56.99;100845.59;5002739;28;20207;-80
2023/09/11 11:11:27;;;;;;;10.73;7.37;;;;;;;28.04;58.08;100820.97;4994917;28;20211;-80
2023/09/11 11:14:18;;;;;;;10.40;6.97;;;;;;;28.24;58.24;100795.91;5000051;28;20223;-80
2023/09/11 11:16:56;;;;;;;11.43;7.17;;;;;;;28.46;58.95;100738.47;4993076;28;20812;-79
2023/09/11 11:19:33;;;;;;;12.00;7.23;;;;;;;28.55;56.62;100795.06;4988884;28;20207;-80
2023/09/11 11:22:03;;;;;;;8.50;7.60;;;;;;;28.55;55.60;100822.78;5016644;28;20458;-79